Time;durP1;ratioP1;P1;durP2;ratioP2;P2;SDS_P1;SDS_P2;PMS_P1;PMS_P2;Temp;Humidity;BMP_temperature;BMP_pressure;BME280_temperature;BME280_humidity;BME280_pressure;Samples;Min_cycle;Max_cycle;Signal;HPM_P1;HPM_P2
2022/04/15 00:00:07;;;;;;;87.15;37.25;;;;;;;7.89;66.21;100723.03;5120077;27;20118;-65
2022/04/15 00:02:33;;;;;;;95.75;38.33;;;;;;;7.83;66.28;100718.13;5123896;27;20422;-65
2022/04/15 00:04:59;;;;;;;90.28;36.70;;;;;;;7.80;66.38;100721.00;5100708;27;20056;-65
2022/04/15 00:07:25;;;;;;;82.18;34.97;;;;;;;7.79;66.46;100721.13;5124410;27;20432;-65
2022/04/15 00:09:50;;;;;;;85.65;34.03;;;;;;;7.71;66.63;100712.81;5129692;27;20115;-65
2022/04/15 00:12:27;;;;;;;82.22;34.65;;;;;;;7.73;66.45;100719.72;5129855;27;20026;-65
2022/04/15 00:14:54;;;;;;;86.32;33.88;;;;;;;7.65;67.00;100706.09;5097485;27;20031;-65
2022/04/15 00:17:19;;;;;;;91.20;35.25;;;;;;;7.71;67.26;100707.47;5114617;27;20128;-65
2022/04/15 00:19:46;;;;;;;78.05;31.33;;;;;;;7.65;66.64;100706.09;5122803;27;20050;-67
2022/04/15 00:22:12;;;;;;;93.78;33.08;;;;;;;7.64;67.36;100715.03;5123064;27;20031;-65
2022/04/15 00:24:37;;;;;;;76.07;32.38;;;;;;;7.57;67.19;100704.88;5121278;27;20377;-64
2022/04/15 00:27:03;;;;;;;82.32;31.42;;;;;;;7.54;67.59;100702.44;5115281;27;20040;-65
2022/04/15 00:29:28;;;;;;;77.93;32.42;;;;;;;7.53;67.50;100706.91;5112137;27;20039;-65
2022/04/15 00:31:54;;;;;;;81.40;32.13;;;;;;;7.49;67.60;100715.25;5120187;27;20043;-65
2022/04/15 00:34:19;;;;;;;86.57;35.08;;;;;;;7.45;67.54;100703.09;5116703;27;20027;-65
2022/04/15 00:36:45;;;;;;;91.03;32.38;;;;;;;7.39;68.38;100703.50;5117675;27;20102;-67
2022/04/15 00:39:10;;;;;;;78.95;30.15;;;;;;;7.34;68.44;100702.94;5117695;27;20476;-67
2022/04/15 00:41:36;;;;;;;73.65;30.65;;;;;;;7.33;68.56;100709.25;5125453;27;20045;-67
2022/04/15 00:44:01;;;;;;;70.85;29.27;;;;;;;7.31;69.08;100703.16;5120692;27;20031;-67
2022/04/15 00:46:27;;;;;;;65.03;27.83;;;;;;;7.27;69.75;100691.84;5128442;27;20473;-67
2022/04/15 00:48:52;;;;;;;77.38;27.73;;;;;;;7.24;70.07;100700.06;5122844;27;20027;-67
2022/04/15 00:51:18;;;;;;;63.05;29.13;;;;;;;7.19;70.56;100702.16;5099888;27;20383;-67
2022/04/15 00:53:45;;;;;;;81.93;30.67;;;;;;;7.16;70.61;100699.72;5129905;27;20076;-67
2022/04/15 00:56:12;;;;;;;69.15;28.90;;;;;;;7.13;70.40;100699.09;5124443;27;20031;-67
2022/04/15 00:58:40;;;;;;;74.22;29.05;;;;;;;6.99;71.01;100682.19;5126144;27;20114;-66
2022/04/15 01:01:06;;;;;;;61.25;29.83;;;;;;;7.07;71.93;100696.81;5125472;27;20040;-66
2022/04/15 01:03:32;;;;;;;67.85;29.17;;;;;;;7.02;71.60;100698.97;5120071;27;20031;-66
2022/04/15 01:05:59;;;;;;;68.18;28.45;;;;;;;7.00;71.90;100688.41;5120144;27;20075;-66
2022/04/15 01:08:30;;;;;;;60.05;26.63;;;;;;;6.88;70.98;100676.75;5119751;27;20054;-67
2022/04/15 01:10:58;;;;;;;57.25;26.35;;;;;;;6.88;71.25;100681.22;5116763;27;20031;-68
2022/04/15 01:13:26;;;;;;;55.30;24.35;;;;;;;6.95;71.70;100696.69;5116923;27;20499;-69
2022/04/15 01:15:54;;;;;;;58.63;24.60;;;;;;;6.92;72.11;100696.91;5120650;27;20037;-66
2022/04/15 01:18:20;;;;;;;55.03;22.77;;;;;;;6.93;72.77;100700.41;5113151;27;20034;-66
2022/04/15 01:20:50;;;;;;;59.92;22.95;;;;;;;6.89;72.71;100686.44;5124257;27;20019;-66
2022/04/15 01:23:16;;;;;;;51.83;22.38;;;;;;;6.83;72.36;100680.66;5122849;27;20023;-66
2022/04/15 01:25:42;;;;;;;57.50;21.85;;;;;;;6.77;72.23;100673.06;5127834;27;20039;-64
2022/04/15 01:28:09;;;;;;;52.60;21.88;;;;;;;6.81;72.02;100680.75;5120661;27;20047;-66
2022/04/15 01:30:35;;;;;;;49.65;20.48;;;;;;;6.80;72.19;100684.38;5116608;27;20488;-66
2022/04/15 01:33:02;;;;;;;40.20;20.15;;;;;;;6.72;71.68;100670.72;5122845;27;20031;-67
2022/04/15 01:35:29;;;;;;;52.88;21.85;;;;;;;6.76;71.49;100677.56;5118294;27;20057;-67
2022/04/15 01:37:56;;;;;;;46.85;19.83;;;;;;;6.73;71.32;100675.09;5113767;27;20031;-67
2022/04/15 01:40:22;;;;;;;46.35;20.75;;;;;;;6.73;71.48;100668.91;5098812;27;20035;-67
2022/04/15 01:42:48;;;;;;;40.92;19.63;;;;;;;6.72;72.03;100675.19;5102170;28;20031;-67
2022/04/15 01:45:14;;;;;;;44.88;19.33;;;;;;;6.68;72.91;100676.34;5121929;27;20023;-67
2022/04/15 01:47:39;;;;;;;51.72;20.33;;;;;;;6.63;73.23;100663.34;5118685;27;20497;-67
2022/04/15 01:50:07;;;;;;;48.58;20.50;;;;;;;6.69;73.52;100684.25;5127222;27;20118;-67
2022/04/15 01:52:33;;;;;;;60.92;21.83;;;;;;;6.66;73.34;100679.13;5121180;27;20034;-67
2022/04/15 01:54:59;;;;;;;48.40;21.20;;;;;;;6.49;73.44;100652.72;5124162;27;20015;-68
2022/04/15 01:57:25;;;;;;;49.95;21.80;;;;;;;6.60;72.97;100676.00;5104209;27;20031;-67
2022/04/15 01:59:50;;;;;;;50.45;23.60;;;;;;;6.56;73.23;100672.69;5108619;27;20034;-68
2022/04/15 02:02:16;;;;;;;52.95;22.08;;;;;;;6.50;73.10;100667.75;5117311;27;20078;-65
2022/04/15 02:04:42;;;;;;;59.05;23.17;;;;;;;6.50;73.34;100675.75;5119123;27;20056;-65
2022/04/15 02:07:08;;;;;;;63.53;24.42;;;;;;;6.47;73.41;100675.09;5114677;27;20040;-68
2022/04/15 02:09:33;;;;;;;53.40;21.60;;;;;;;6.42;73.55;100670.06;5122855;27;20084;-67
2022/04/15 02:11:59;;;;;;;58.20;22.52;;;;;;;6.39;74.12;100664.94;5114959;27;20023;-68
2022/04/15 02:14:25;;;;;;;50.45;21.85;;;;;;;6.39;74.49;100672.09;5117549;27;20049;-67
2022/04/15 02:16:54;;;;;;;53.97;22.42;;;;;;;6.42;74.51;100666.56;5119971;27;20023;-67
2022/04/15 02:19:23;;;;;;;59.60;23.42;;;;;;;6.41;74.54;100659.50;5111575;27;20033;-67
2022/04/15 02:21:49;;;;;;;52.25;22.58;;;;;;;6.43;74.86;100671.78;5095202;27;20057;-68
2022/04/15 02:24:15;;;;;;;50.35;22.08;;;;;;;6.38;74.69;100668.56;5096745;28;20107;-67
2022/04/15 02:26:42;;;;;;;56.30;22.60;;;;;;;6.33;75.05;100662.69;5119615;27;20043;-68
2022/04/15 02:29:07;;;;;;;57.95;22.67;;;;;;;6.31;74.89;100653.06;5120308;27;20051;-67
2022/04/15 02:31:33;;;;;;;57.28;22.58;;;;;;;6.34;74.88;100659.06;5101345;27;20088;-67
2022/04/15 02:33:58;;;;;;;49.78;22.58;;;;;;;6.32;75.06;100666.28;5107061;27;20076;-66
2022/04/15 02:36:24;;;;;;;46.53;22.15;;;;;;;6.20;75.16;100643.13;5097998;27;20031;-65
2022/04/15 02:38:49;;;;;;;56.97;22.60;;;;;;;6.29;75.34;100650.50;5125905;27;20076;-65
2022/04/15 02:41:15;;;;;;;54.42;22.77;;;;;;;6.19;75.22;100644.06;5125257;27;20088;-65
2022/04/15 02:43:41;;;;;;;52.30;21.50;;;;;;;6.24;75.02;100655.28;5118553;27;20027;-65
2022/04/15 02:46:09;;;;;;;44.50;20.38;;;;;;;6.20;74.99;100648.47;5120370;27;20055;-65
2022/04/15 02:48:34;;;;;;;42.83;20.33;;;;;;;6.12;74.89;100632.09;5116501;27;20023;-64
2022/04/15 02:51:01;;;;;;;41.50;19.08;;;;;;;6.20;74.58;100639.59;5118371;27;20737;-65
2022/04/15 02:53:27;;;;;;;41.55;20.58;;;;;;;6.17;74.48;100638.00;5101550;28;20049;-65
2022/04/15 02:55:53;;;;;;;43.75;19.15;;;;;;;6.14;73.89;100640.00;5121761;27;20031;-64
2022/04/15 02:58:19;;;;;;;45.50;20.95;;;;;;;6.10;74.08;100634.00;5092990;28;20054;-64
2022/04/15 03:00:45;;;;;;;43.45;18.52;;;;;;;5.91;74.20;100606.00;5116472;27;20058;-65
2022/04/15 03:03:11;;;;;;;45.72;19.98;;;;;;;5.98;74.27;100618.84;5115857;27;20061;-65
2022/04/15 03:05:37;;;;;;;48.28;20.73;;;;;;;5.73;74.04;100586.72;5115855;27;20031;-64
2022/04/15 03:08:03;;;;;;;48.53;20.80;;;;;;;5.91;74.47;100620.19;5118525;27;20019;-65
2022/04/15 03:10:28;;;;;;;39.10;19.63;;;;;;;5.83;74.39;100614.47;5113148;27;20035;-65
2022/04/15 03:12:54;;;;;;;44.10;20.33;;;;;;;5.86;75.31;100630.25;5124225;27;20023;-65
2022/04/15 03:15:20;;;;;;;36.90;18.92;;;;;;;5.85;75.56;100631.22;5113382;27;20110;-65
2022/04/15 03:17:45;;;;;;;38.90;19.55;;;;;;;5.80;75.66;100622.63;5118593;27;20116;-64
2022/04/15 03:20:13;;;;;;;41.88;19.17;;;;;;;5.75;75.33;100618.56;5107974;28;20098;-65
2022/04/15 03:22:41;;;;;;;48.50;19.75;;;;;;;5.75;75.75;100621.22;5115104;27;20015;-65
2022/04/15 03:25:09;;;;;;;41.25;19.73;;;;;;;5.74;75.90;100627.50;5124607;27;20491;-67
2022/04/15 03:27:35;;;;;;;39.88;18.30;;;;;;;5.73;75.68;100623.97;5118586;27;20439;-67
2022/04/15 03:30:01;;;;;;;38.35;18.58;;;;;;;5.60;75.64;100603.53;5093497;28;20028;-64
2022/04/15 03:32:26;;;;;;;39.47;18.88;;;;;;;5.64;76.04;100615.72;5122451;27;20027;-64
2022/04/15 03:34:53;;;;;;;43.47;18.88;;;;;;;5.63;76.13;100620.19;5118018;27;20395;-65
2022/04/15 03:37:18;;;;;;;42.60;20.88;;;;;;;5.56;75.90;100613.53;5089617;28;20528;-65
2022/04/15 03:39:44;;;;;;;41.08;18.60;;;;;;;5.60;75.95;100623.03;5122574;27;20165;-66
2022/04/15 03:42:09;;;;;;;39.03;18.77;;;;;;;5.58;76.16;100619.59;5120353;28;20023;-67
2022/04/15 03:44:36;;;;;;;39.60;18.10;;;;;;;5.57;76.52;100625.00;5126551;28;20034;-67
2022/04/15 03:47:05;;;;;;;40.13;18.83;;;;;;;5.58;76.73;100626.75;5112348;28;20046;-66
2022/04/15 03:49:31;;;;;;;34.42;18.40;;;;;;;5.50;76.63;100616.56;5114146;28;20024;-69
2022/04/15 03:51:57;;;;;;;42.13;19.58;;;;;;;5.44;76.48;100618.75;5116138;28;20026;-67
2022/04/15 03:54:23;;;;;;;42.60;17.63;;;;;;;5.40;77.33;100614.56;5118523;28;20027;-67
2022/04/15 03:56:48;;;;;;;36.55;18.60;;;;;;;5.46;77.23;100635.47;5127587;28;20589;-67
2022/04/15 03:59:14;;;;;;;36.28;19.20;;;;;;;5.44;77.31;100638.22;5113417;28;20090;-67
2022/04/15 04:01:39;;;;;;;38.80;18.60;;;;;;;5.44;77.45;100635.56;5117567;28;20476;-67
2022/04/15 04:04:05;;;;;;;38.33;18.30;;;;;;;5.36;77.90;100627.22;5115981;28;20019;-67
2022/04/15 04:06:31;;;;;;;37.50;19.90;;;;;;;5.35;78.48;100622.00;5111431;28;20027;-67
2022/04/15 04:08:56;;;;;;;41.17;18.50;;;;;;;5.44;79.16;100648.00;5118647;28;20027;-67
2022/04/15 04:11:21;;;;;;;40.60;20.92;;;;;;;5.43;79.49;100643.66;5114485;28;20023;-65
2022/04/15 04:13:47;;;;;;;41.67;19.33;;;;;;;5.44;79.32;100640.88;5112559;28;20084;-64
2022/04/15 04:16:13;;;;;;;41.03;19.13;;;;;;;5.44;79.31;100643.56;5110308;28;20507;-65
2022/04/15 04:18:39;;;;;;;51.70;20.25;;;;;;;5.46;79.45;100643.47;5111898;28;20105;-63
2022/04/15 04:21:05;;;;;;;43.47;19.95;;;;;;;5.42;79.41;100645.44;5113147;28;20468;-64
2022/04/15 04:23:30;;;;;;;58.10;24.70;;;;;;;5.46;79.82;100647.00;5113433;28;20084;-64
2022/04/15 04:25:56;;;;;;;49.22;24.20;;;;;;;5.37;79.77;100636.91;5114799;28;20470;-64
2022/04/15 04:28:21;;;;;;;50.97;22.60;;;;;;;5.39;80.08;100635.03;5114690;28;20050;-64
2022/04/15 04:30:47;;;;;;;51.20;24.50;;;;;;;5.50;80.49;100637.00;5093066;28;20131;-63
2022/04/15 04:33:12;;;;;;;51.35;24.20;;;;;;;5.53;80.57;100643.00;5113255;28;20101;-64
2022/04/15 04:35:38;;;;;;;58.15;26.50;;;;;;;5.64;80.85;100639.66;5108940;28;20015;-64
2022/04/15 04:38:05;;;;;;;45.65;23.98;;;;;;;5.63;80.70;100632.63;5113403;28;20152;-64
2022/04/15 04:40:31;;;;;;;51.20;22.30;;;;;;;5.77;80.36;100640.63;5094115;28;20028;-64
2022/04/15 04:42:56;;;;;;;58.70;24.05;;;;;;;5.86;80.16;100648.03;5109322;28;20465;-64
2022/04/15 04:45:22;;;;;;;44.28;22.77;;;;;;;5.94;79.98;100643.91;5114644;27;20102;-64
2022/04/15 04:47:48;;;;;;;47.30;22.88;;;;;;;6.03;79.52;100640.69;5103388;27;20470;-65
2022/04/15 04:50:13;;;;;;;42.47;21.65;;;;;;;6.14;78.40;100640.84;5126191;27;20034;-65
2022/04/15 04:52:40;;;;;;;42.92;19.60;;;;;;;6.25;77.79;100638.34;5123948;27;20277;-67
2022/04/15 04:55:07;;;;;;;35.28;18.58;;;;;;;6.40;77.07;100644.47;5126578;27;20022;-66
2022/04/15 04:57:32;;;;;;;34.47;19.27;;;;;;;6.42;76.17;100634.59;5128243;27;20023;-67
2022/04/15 04:59:58;;;;;;;30.58;17.90;;;;;;;6.61;76.21;100646.59;5117765;27;20520;-67
2022/04/15 05:02:23;;;;;;;34.00;18.23;;;;;;;6.67;75.83;100646.19;5118467;27;20087;-65
2022/04/15 05:04:49;;;;;;;33.00;19.55;;;;;;;6.85;75.76;100652.97;5123574;27;20038;-64
2022/04/15 05:07:15;;;;;;;39.63;19.08;;;;;;;6.87;75.90;100637.69;5125138;27;20084;-65
2022/04/15 05:09:43;;;;;;;34.20;18.45;;;;;;;7.10;75.57;100651.28;5124250;27;20027;-65
2022/04/15 05:12:10;;;;;;;31.38;18.45;;;;;;;7.23;74.61;100649.47;5121380;27;20385;-65
2022/04/15 05:14:35;;;;;;;35.65;18.48;;;;;;;7.39;73.96;100653.66;5116142;27;20027;-64
2022/04/15 05:17:00;;;;;;;32.70;17.95;;;;;;;7.46;72.26;100640.72;5118532;27;20015;-65
2022/04/15 05:19:26;;;;;;;33.15;18.98;;;;;;;7.67;71.39;100655.25;5113211;27;20023;-65
2022/04/15 05:21:52;;;;;;;30.45;17.55;;;;;;;7.83;71.15;100658.56;5123841;27;20077;-64
2022/04/15 05:24:18;;;;;;;30.45;17.88;;;;;;;7.95;70.63;100660.31;5118471;27;20031;-65
2022/04/15 05:26:44;;;;;;;34.80;19.35;;;;;;;8.04;70.83;100649.84;5123365;27;20043;-64
2022/04/15 05:29:09;;;;;;;32.95;18.55;;;;;;;8.25;71.07;100648.31;5125552;27;20039;-65
2022/04/15 05:31:36;;;;;;;32.45;18.42;;;;;;;8.40;69.91;100647.19;5096652;27;20031;-63
2022/04/15 05:34:02;;;;;;;30.85;18.25;;;;;;;8.62;70.15;100654.47;5118825;27;20531;-65
2022/04/15 05:36:28;;;;;;;29.65;17.33;;;;;;;8.74;69.36;100653.56;5118116;27;20142;-65
2022/04/15 05:38:53;;;;;;;33.75;19.13;;;;;;;8.92;68.85;100658.38;5110442;28;20116;-65
2022/04/15 05:41:19;;;;;;;31.73;19.08;;;;;;;9.08;68.70;100655.38;5115640;27;20192;-64
2022/04/15 05:43:46;;;;;;;34.25;18.42;;;;;;;9.29;67.46;100656.44;5106662;27;20045;-65
2022/04/15 05:46:11;;;;;;;29.05;18.80;;;;;;;9.53;67.92;100654.50;5117020;27;20031;-65
2022/04/15 05:48:37;;;;;;;32.13;18.73;;;;;;;9.76;67.19;100653.56;5119727;27;20883;-65
2022/04/15 05:51:03;;;;;;;29.52;17.38;;;;;;;9.99;64.61;100649.06;5117953;27;20035;-65
2022/04/15 05:53:28;;;;;;;28.65;17.05;;;;;;;10.18;61.29;100634.06;5118056;27;20038;-64
2022/04/15 05:55:53;;;;;;;31.10;17.27;;;;;;;10.51;57.75;100638.53;5120865;27;20034;-65
2022/04/15 05:58:19;;;;;;;27.73;18.33;;;;;;;10.83;55.50;100642.03;5119727;27;20035;-65
2022/04/15 06:00:45;;;;;;;29.23;18.08;;;;;;;11.13;52.98;100642.16;5122891;27;20474;-65
2022/04/15 06:03:11;;;;;;;30.80;19.27;;;;;;;11.43;51.24;100644.91;5121350;27;20023;-65
2022/04/15 06:05:36;;;;;;;30.90;18.65;;;;;;;11.73;48.89;100644.94;5112165;27;20032;-65
2022/04/15 06:08:02;;;;;;;28.30;18.10;;;;;;;12.03;49.21;100646.78;5115699;27;20431;-65
2022/04/15 06:10:28;;;;;;;27.73;17.70;;;;;;;12.28;48.09;100638.25;5116303;27;20026;-65
2022/04/15 06:15:41;;;;;;;28.27;17.98;;;;;;;12.88;47.07;100635.34;5114148;27;20195;-65
2022/04/15 06:18:07;;;;;;;27.45;16.52;;;;;;;13.11;46.52;100626.00;5117111;27;20457;-65
2022/04/15 06:20:33;;;;;;;28.95;16.90;;;;;;;13.50;45.45;100628.50;5116213;27;20050;-66
2022/04/15 06:22:58;;;;;;;24.33;14.57;;;;;;;13.81;45.03;100625.53;5115594;27;20465;-65
2022/04/15 06:25:24;;;;;;;28.30;16.02;;;;;;;14.10;43.91;100616.34;5112682;27;20015;-66
2022/04/15 06:27:50;;;;;;;25.05;16.27;;;;;;;14.32;43.21;100609.72;5116792;27;20141;-66
2022/04/15 06:30:16;;;;;;;23.20;15.45;;;;;;;14.72;41.85;100626.34;5115398;27;20134;-69
2022/04/15 06:32:42;;;;;;;26.70;16.33;;;;;;;14.98;41.35;100629.97;5118381;27;20099;-69
2022/04/15 06:35:08;;;;;;;25.15;15.55;;;;;;;15.17;40.78;100619.84;5127417;27;20076;-69
2022/04/15 06:37:34;;;;;;;26.13;15.60;;;;;;;15.43;40.98;100622.59;5118374;27;20098;-66
2022/04/15 06:39:59;;;;;;;29.45;15.55;;;;;;;15.65;40.04;100624.78;5125869;27;20047;-66
2022/04/15 06:42:28;;;;;;;23.70;14.95;;;;;;;15.97;39.54;100627.66;5118268;27;20401;-66
2022/04/15 06:44:54;;;;;;;29.23;16.50;;;;;;;16.20;39.56;100625.22;5096852;27;20035;-66
2022/04/15 06:47:19;;;;;;;26.65;14.73;;;;;;;16.45;39.24;100627.03;5118956;27;21812;-66
2022/04/15 06:49:46;;;;;;;25.50;15.82;;;;;;;16.71;38.83;100636.78;5115147;27;20369;-66
2022/04/15 06:52:12;;;;;;;26.30;15.90;;;;;;;16.93;38.11;100629.88;5098960;28;20384;-66
2022/04/15 06:54:38;;;;;;;26.27;15.93;;;;;;;17.18;37.62;100623.41;5105621;28;20031;-66
2022/04/15 06:57:04;;;;;;;27.45;16.00;;;;;;;17.43;37.05;100636.84;5110765;27;20023;-66
2022/04/15 06:59:30;;;;;;;23.45;15.48;;;;;;;17.61;35.56;100637.50;5107286;27;20042;-65
2022/04/15 07:01:55;;;;;;;25.17;15.70;;;;;;;17.78;35.07;100619.31;5129912;27;20015;-67
2022/04/15 07:04:22;;;;;;;20.30;13.57;;;;;;;17.98;34.50;100629.63;5124527;27;20030;-66
2022/04/15 07:06:47;;;;;;;27.48;16.13;;;;;;;18.15;35.59;100624.13;5124345;27;20027;-66
2022/04/15 07:09:13;;;;;;;21.83;14.70;;;;;;;18.23;35.37;100602.38;5102478;28;20027;-66
2022/04/15 07:11:38;;;;;;;25.35;16.15;;;;;;;18.50;34.98;100623.66;5118946;27;20065;-66
2022/04/15 07:14:05;;;;;;;23.25;15.07;;;;;;;18.63;35.27;100623.94;5114160;27;20047;-67
2022/04/15 07:16:31;;;;;;;27.73;16.02;;;;;;;18.78;35.45;100620.25;5113478;27;20063;-67
2022/04/15 07:18:57;;;;;;;22.35;15.00;;;;;;;18.97;34.72;100624.38;5116122;27;20050;-66
2022/04/15 07:21:23;;;;;;;25.60;15.60;;;;;;;19.10;34.99;100616.47;5119737;27;20070;-66
2022/04/15 07:23:49;;;;;;;22.20;15.32;;;;;;;19.23;34.38;100603.09;5115533;27;20063;-66
2022/04/15 07:26:14;;;;;;;22.58;15.10;;;;;;;19.42;34.41;100610.78;5112446;27;20031;-67
2022/04/15 07:28:40;;;;;;;21.17;14.70;;;;;;;19.59;33.38;100606.84;5125632;27;20043;-67
2022/04/15 07:31:07;;;;;;;27.70;15.52;;;;;;;19.74;32.68;100605.84;5120748;27;20042;-67
2022/04/15 07:33:33;;;;;;;22.75;14.20;;;;;;;19.91;32.86;100610.09;5116947;27;20031;-67
2022/04/15 07:35:58;;;;;;;25.40;15.68;;;;;;;20.07;32.71;100598.16;5101136;28;21381;-67
2022/04/15 07:38:23;;;;;;;20.90;14.05;;;;;;;20.29;32.08;100610.00;5113963;27;20031;-67
2022/04/15 07:40:49;;;;;;;28.08;14.63;;;;;;;20.42;32.02;100602.00;5117467;28;20035;-67
2022/04/15 07:43:15;;;;;;;21.33;14.63;;;;;;;20.69;30.89;100613.00;5099573;28;20065;-67
2022/04/15 07:45:41;;;;;;;21.27;15.25;;;;;;;20.79;30.55;100604.53;5115352;28;20031;-67
2022/04/15 07:48:07;;;;;;;20.98;13.05;;;;;;;20.95;30.23;100607.88;5118483;28;20015;-67
2022/04/15 07:50:32;;;;;;;22.75;13.82;;;;;;;21.14;29.85;100612.69;5111261;28;20043;-67
2022/04/15 07:52:59;;;;;;;21.20;13.00;;;;;;;21.34;29.34;100612.84;5098062;28;20103;-67
2022/04/15 07:55:28;;;;;;;22.27;12.02;;;;;;;21.49;28.58;100613.63;5097597;28;20061;-67
2022/04/15 07:57:54;;;;;;;20.10;11.43;;;;;;;21.70;27.86;100610.84;5096603;28;20042;-67
2022/04/15 08:00:20;;;;;;;17.30;12.38;;;;;;;21.93;28.20;100617.75;5119298;28;20034;-67
2022/04/15 08:02:46;;;;;;;21.23;12.38;;;;;;;22.13;28.63;100612.41;5097953;28;20031;-67
2022/04/15 08:05:13;;;;;;;18.27;11.20;;;;;;;22.35;27.06;100608.53;5118661;28;20519;-68
2022/04/15 08:07:38;;;;;;;14.88;10.07;;;;;;;22.63;25.90;100609.28;5117426;28;20043;-68
2022/04/15 08:10:06;;;;;;;20.50;9.93;;;;;;;22.91;25.41;100604.53;5116003;28;20556;-68
2022/04/15 08:12:33;;;;;;;14.48;9.73;;;;;;;23.22;25.36;100584.81;5118668;27;20550;-68
2022/04/15 08:14:59;;;;;;;15.43;10.48;;;;;;;23.74;25.29;100604.00;5116964;28;20032;-67
2022/04/15 08:17:25;;;;;;;15.45;11.50;;;;;;;24.31;24.40;100599.44;5113467;28;20035;-69
2022/04/15 08:19:51;;;;;;;14.80;10.60;;;;;;;24.98;23.43;100596.19;5111752;27;20039;-69
2022/04/15 08:22:16;;;;;;;14.50;10.70;;;;;;;25.83;22.71;100604.56;5123131;27;20054;-69
2022/04/15 08:24:45;;;;;;;18.05;10.25;;;;;;;26.82;21.71;100593.31;5116657;27;20108;-68
2022/04/15 08:27:11;;;;;;;14.48;10.07;;;;;;;28.25;20.67;100593.66;5129608;27;20039;-68
2022/04/15 08:29:38;;;;;;;15.57;10.52;;;;;;;29.35;19.29;100586.75;5116348;27;20509;-69
2022/04/15 08:32:07;;;;;;;16.33;10.60;;;;;;;30.28;18.72;100593.25;5124854;27;20485;-69
2022/04/15 08:34:34;;;;;;;10.95;9.18;;;;;;;31.20;17.80;100592.13;5116526;27;20035;-70
2022/04/15 08:36:59;;;;;;;13.75;10.77;;;;;;;31.68;17.31;100583.72;5116263;27;20066;-69
2022/04/15 08:39:24;;;;;;;14.45;11.13;;;;;;;31.98;16.83;100588.66;5116524;27;20069;-69
2022/04/15 08:41:51;;;;;;;13.70;9.75;;;;;;;32.45;16.74;100581.16;5116699;27;20031;-69
2022/04/15 08:44:18;;;;;;;11.73;9.77;;;;;;;32.75;16.65;100577.69;5119370;27;20469;-68
2022/04/15 08:46:44;;;;;;;11.30;9.63;;;;;;;32.92;16.47;100581.94;5119274;27;20034;-67
2022/04/15 08:49:11;;;;;;;17.83;9.85;;;;;;;33.25;16.15;100586.97;5122055;27;20115;-67
2022/04/15 08:51:37;;;;;;;18.33;11.55;;;;;;;33.44;15.89;100577.00;5118005;27;20366;-66
2022/04/15 08:54:06;;;;;;;13.73;9.30;;;;;;;33.56;16.10;100579.50;5126069;27;20019;-66
2022/04/15 08:56:31;;;;;;;14.65;10.60;;;;;;;33.34;15.20;100578.91;5120878;27;20031;-65
2022/04/15 08:58:57;;;;;;;12.63;10.43;;;;;;;32.93;15.59;100564.13;5120727;27;20520;-65
2022/04/15 09:01:22;;;;;;;12.63;9.82;;;;;;;32.47;15.62;100565.88;5123422;27;20107;-66
2022/04/15 09:03:48;;;;;;;12.48;9.70;;;;;;;31.71;16.59;100572.06;5125320;27;20027;-68
2022/04/15 09:06:17;;;;;;;13.13;10.38;;;;;;;31.28;17.14;100566.75;5125001;27;20477;-67
2022/04/15 09:08:59;;;;;;;13.40;9.35;;;;;;;31.09;17.33;100565.41;5103331;28;20032;-68
2022/04/15 09:11:30;;;;;;;15.65;10.93;;;;;;;30.30;17.89;100563.38;5112549;27;20073;-67
2022/04/15 09:13:56;;;;;;;13.73;10.07;;;;;;;29.73;18.16;100562.81;5118219;27;20512;-67
2022/04/15 09:16:22;;;;;;;14.68;9.80;;;;;;;29.20;18.79;100567.13;5117596;27;20098;-67
2022/04/15 09:18:48;;;;;;;23.15;10.07;;;;;;;28.86;18.77;100559.88;5123031;27;20024;-67
2022/04/15 09:21:17;;;;;;;15.80;9.48;;;;;;;28.25;19.44;100555.03;5125577;27;20072;-67
2022/04/15 09:23:50;;;;;;;13.55;9.60;;;;;;;27.87;19.67;100552.81;5114008;27;20120;-67
2022/04/15 09:26:16;;;;;;;16.05;10.65;;;;;;;27.76;19.31;100544.53;5102959;27;20636;-67
2022/04/15 09:28:42;;;;;;;14.40;9.85;;;;;;;27.58;19.18;100545.47;5119398;27;20046;-68
2022/04/15 09:31:13;;;;;;;16.65;10.02;;;;;;;27.47;20.01;100549.06;5106589;27;20502;-68
2022/04/15 09:33:59;;;;;;;11.20;9.13;;;;;;;27.03;20.29;100548.72;5110735;27;20036;-66
2022/04/15 09:36:37;;;;;;;14.55;9.55;;;;;;;26.96;20.51;100546.09;5090693;28;20088;-67
2022/04/15 09:39:10;;;;;;;13.07;9.75;;;;;;;26.72;21.24;100546.25;5121612;27;20031;-66
2022/04/15 09:41:40;;;;;;;15.88;10.68;;;;;;;26.41;21.51;100542.59;5108625;27;20374;-68
2022/04/15 09:44:10;;;;;;;17.30;11.02;;;;;;;26.46;21.43;100547.41;5093630;27;20139;-67
2022/04/15 09:46:35;;;;;;;12.75;9.93;;;;;;;26.44;20.91;100547.63;5104120;27;20027;-68
2022/04/15 09:49:07;;;;;;;18.77;10.93;;;;;;;26.43;20.35;100536.84;5110144;27;20107;-66
2022/04/15 09:51:46;;;;;;;17.02;10.93;;;;;;;26.17;20.89;100542.69;5110326;27;20106;-68
2022/04/15 09:54:25;;;;;;;12.90;9.75;;;;;;;25.90;21.11;100538.56;5105289;27;20396;-68
2022/04/15 09:56:58;;;;;;;13.25;9.20;;;;;;;25.81;20.54;100537.16;5097463;28;20123;-67
2022/04/15 09:59:25;;;;;;;16.90;10.18;;;;;;;25.58;21.12;100528.75;5108748;27;20114;-67
2022/04/15 10:01:55;;;;;;;15.45;10.38;;;;;;;25.30;21.43;100520.09;5118839;27;20035;-68
2022/04/15 10:04:25;;;;;;;15.75;10.43;;;;;;;25.12;21.83;100520.88;5112702;27;20515;-67
2022/04/15 10:06:51;;;;;;;14.77;10.02;;;;;;;25.22;21.68;100532.22;5120673;27;20468;-68
2022/04/15 10:09:17;;;;;;;17.48;10.65;;;;;;;25.12;22.04;100529.13;5091458;28;20427;-67
2022/04/15 10:11:45;;;;;;;13.95;10.10;;;;;;;25.17;21.72;100528.44;5115268;27;20055;-68
2022/04/15 10:14:12;;;;;;;14.65;10.55;;;;;;;25.31;21.65;100535.56;5111378;27;20019;-68
2022/04/15 10:16:42;;;;;;;18.98;9.43;;;;;;;25.15;21.81;100525.94;5119205;27;20729;-68
2022/04/15 10:19:09;;;;;;;13.63;8.63;;;;;;;25.14;21.22;100527.00;5108772;27;20019;-68
2022/04/15 10:21:38;;;;;;;14.07;8.80;;;;;;;24.99;21.86;100526.47;5096840;27;20436;-68
2022/04/15 10:24:04;;;;;;;11.63;9.40;;;;;;;25.05;21.83;100519.28;5108529;27;20031;-67
2022/04/15 10:26:35;;;;;;;12.57;8.77;;;;;;;25.06;21.85;100520.94;5110888;27;20023;-67
2022/04/15 10:29:03;;;;;;;10.98;7.72;;;;;;;24.90;21.06;100524.25;5104020;27;20504;-67
2022/04/15 10:31:46;;;;;;;11.10;8.32;;;;;;;24.74;21.36;100513.81;5109708;27;20049;-67
2022/04/15 10:34:13;;;;;;;12.65;7.95;;;;;;;24.51;21.62;100497.91;5108979;27;20473;-67
2022/04/15 10:36:43;;;;;;;13.88;9.40;;;;;;;24.66;21.98;100503.94;5103330;28;20487;-67
2022/04/15 10:39:09;;;;;;;17.75;9.68;;;;;;;24.51;22.44;100511.59;5109835;27;20023;-68
2022/04/15 10:41:44;;;;;;;9.85;7.57;;;;;;;24.43;22.81;100512.69;5103416;27;20027;-67
2022/04/15 10:44:14;;;;;;;13.15;8.68;;;;;;;24.61;22.92;100511.13;5109448;27;20034;-67
2022/04/15 10:46:40;;;;;;;16.08;9.73;;;;;;;24.67;22.67;100502.03;5106135;27;20039;-68
2022/04/15 10:49:27;;;;;;;12.63;8.90;;;;;;;24.51;23.00;100503.38;5100392;28;20024;-68
2022/04/15 10:52:15;;;;;;;14.38;8.55;;;;;;;24.55;23.48;100509.25;5113680;27;20019;-69
2022/04/15 10:54:45;;;;;;;15.70;8.20;;;;;;;24.56;23.35;100509.03;5102934;27;20043;-69
2022/04/15 10:57:15;;;;;;;10.93;9.00;;;;;;;24.64;23.33;100497.84;5102243;27;20036;-67
2022/04/15 11:02:48;;;;;;;17.17;10.48;;;;;;;24.70;23.19;100505.19;5105679;27;20605;-68
2022/04/15 11:05:32;;;;;;;14.15;9.55;;;;;;;24.62;23.65;100508.16;5113747;27;20104;-68
2022/04/15 11:08:03;;;;;;;16.47;10.47;;;;;;;24.70;24.63;100507.94;5103177;27;20032;-67
2022/04/15 11:10:58;;;;;;;13.30;9.82;;;;;;;24.52;25.01;100502.31;5110795;27;20275;-69
2022/04/15 11:13:27;;;;;;;15.80;10.57;;;;;;;24.42;24.97;100513.78;5098951;27;20031;-68
2022/04/15 11:16:15;;;;;;;14.68;10.68;;;;;;;24.35;25.38;100512.13;5114786;27;20023;-69
2022/04/15 11:18:43;;;;;;;16.00;11.43;;;;;;;24.22;25.77;100502.03;5114843;27;20384;-69